Columbus, Ohio
Traffic Map
Current Weather Conditions
Columbus, Ohio
Few Clouds Haze
Few Clouds

Feels Like: 9°
Wind Chill: Ceiling: Unl
Heat Index: Visibility: 6mi
Dew Point: Wind: 3mph
Humidity: 80% Direction: 180° (S)
Pressure: 30.13in Gusts: 0mph
Raw Report DataKCMH 200051Z 18003KT 6SM HZ FEW250 09/06 A3013 RMK AO2 SLP204 T00940061
Traffic Incident Summary
Active as of:
Severity:
Category:
InformationThere was an issue retrieving the traffic information for this location. Please try a different location or try again shortly.
Advertisements
Track Severe Weather on mobile